sensor_id;sensor_type;location;lat;lon;timestamp;P1;durP1;ratioP1;P2;durP2;ratioP2
54123;SDS011;55741;53.252;5.788;2024-01-11T00:02:04;31.33;;;17.98;;
54123;SDS011;55741;53.252;5.788;2024-01-11T00:04:30;29.92;;;17.65;;
54123;SDS011;55741;53.252;5.788;2024-01-11T00:06:56;34.10;;;18.50;;
54123;SDS011;55741;53.252;5.788;2024-01-11T00:09:22;29.83;;;18.00;;
54123;SDS011;55741;53.252;5.788;2024-01-11T00:11:48;31.73;;;20.15;;
54123;SDS011;55741;53.252;5.788;2024-01-11T00:14:14;36.33;;;21.02;;
54123;SDS011;55741;53.252;5.788;2024-01-11T00:16:41;31.98;;;18.92;;
54123;SDS011;55741;53.252;5.788;2024-01-11T00:19:07;32.53;;;19.52;;
54123;SDS011;55741;53.252;5.788;2024-01-11T00:21:32;33.47;;;18.90;;
54123;SDS011;55741;53.252;5.788;2024-01-11T00:23:58;29.60;;;17.88;;
54123;SDS011;55741;53.252;5.788;2024-01-11T00:26:24;32.42;;;17.92;;
54123;SDS011;55741;53.252;5.788;2024-01-11T00:29:10;30.98;;;18.23;;
54123;SDS011;55741;53.252;5.788;2024-01-11T00:31:36;32.83;;;17.73;;
54123;SDS011;55741;53.252;5.788;2024-01-11T00:34:04;32.63;;;19.05;;
54123;SDS011;55741;53.252;5.788;2024-01-11T00:36:49;32.60;;;18.25;;
54123;SDS011;55741;53.252;5.788;2024-01-11T00:39:15;34.22;;;18.98;;
54123;SDS011;55741;53.252;5.788;2024-01-11T00:41:41;31.80;;;18.90;;
54123;SDS011;55741;53.252;5.788;2024-01-11T00:44:27;31.08;;;18.58;;
54123;SDS011;55741;53.252;5.788;2024-01-11T00:47:13;30.55;;;18.42;;
54123;SDS011;55741;53.252;5.788;2024-01-11T00:49:40;33.03;;;19.30;;
54123;SDS011;55741;53.252;5.788;2024-01-11T00:52:06;28.05;;;17.35;;
54123;SDS011;55741;53.252;5.788;2024-01-11T00:54:32;36.22;;;20.38;;
54123;SDS011;55741;53.252;5.788;2024-01-11T00:56:57;37.95;;;21.02;;
54123;SDS011;55741;53.252;5.788;2024-01-11T00:59:23;34.30;;;18.92;;
54123;SDS011;55741;53.252;5.788;2024-01-11T01:01:49;36.90;;;19.95;;
54123;SDS011;55741;53.252;5.788;2024-01-11T01:04:15;33.70;;;21.00;;
54123;SDS011;55741;53.252;5.788;2024-01-11T01:06:41;37.03;;;20.60;;
54123;SDS011;55741;53.252;5.788;2024-01-11T01:09:08;34.13;;;20.23;;
54123;SDS011;55741;53.252;5.788;2024-01-11T01:11:34;38.38;;;21.45;;
54123;SDS011;55741;53.252;5.788;2024-01-11T01:14:00;34.65;;;20.25;;
54123;SDS011;55741;53.252;5.788;2024-01-11T01:16:26;39.58;;;22.00;;
54123;SDS011;55741;53.252;5.788;2024-01-11T01:18:52;34.47;;;20.20;;
54123;SDS011;55741;53.252;5.788;2024-01-11T01:21:17;38.25;;;21.33;;
54123;SDS011;55741;53.252;5.788;2024-01-11T01:23:43;36.13;;;20.52;;
54123;SDS011;55741;53.252;5.788;2024-01-11T01:26:09;36.35;;;20.60;;
54123;SDS011;55741;53.252;5.788;2024-01-11T01:28:35;39.08;;;22.63;;
54123;SDS011;55741;53.252;5.788;2024-01-11T01:31:01;38.92;;;21.83;;
54123;SDS011;55741;53.252;5.788;2024-01-11T01:33:27;35.75;;;21.63;;
54123;SDS011;55741;53.252;5.788;2024-01-11T01:35:53;37.00;;;21.63;;
54123;SDS011;55741;53.252;5.788;2024-01-11T01:38:19;36.28;;;21.13;;
54123;SDS011;55741;53.252;5.788;2024-01-11T01:40:44;38.53;;;21.27;;
54123;SDS011;55741;53.252;5.788;2024-01-11T01:43:10;38.40;;;22.10;;
54123;SDS011;55741;53.252;5.788;2024-01-11T01:45:38;40.00;;;23.35;;
54123;SDS011;55741;53.252;5.788;2024-01-11T01:48:04;39.78;;;22.70;;
54123;SDS011;55741;53.252;5.788;2024-01-11T01:50:31;35.60;;;20.52;;
54123;SDS011;55741;53.252;5.788;2024-01-11T01:52:57;42.28;;;24.52;;
54123;SDS011;55741;53.252;5.788;2024-01-11T01:55:24;36.10;;;21.35;;
54123;SDS011;55741;53.252;5.788;2024-01-11T01:57:51;39.47;;;22.70;;
54123;SDS011;55741;53.252;5.788;2024-01-11T02:00:17;38.33;;;22.00;;
54123;SDS011;55741;53.252;5.788;2024-01-11T02:02:44;41.03;;;22.45;;
54123;SDS011;55741;53.252;5.788;2024-01-11T02:05:11;38.40;;;21.80;;
54123;SDS011;55741;53.252;5.788;2024-01-11T02:07:39;36.80;;;22.63;;
54123;SDS011;55741;53.252;5.788;2024-01-11T02:10:06;39.50;;;23.17;;
54123;SDS011;55741;53.252;5.788;2024-01-11T02:12:34;39.30;;;22.08;;
54123;SDS011;55741;53.252;5.788;2024-01-11T02:15:00;37.85;;;22.27;;
54123;SDS011;55741;53.252;5.788;2024-01-11T02:17:28;42.83;;;24.67;;
54123;SDS011;55741;53.252;5.788;2024-01-11T02:19:55;39.58;;;22.25;;
54123;SDS011;55741;53.252;5.788;2024-01-11T02:22:24;36.00;;;22.30;;
54123;SDS011;55741;53.252;5.788;2024-01-11T02:24:55;36.40;;;21.42;;
54123;SDS011;55741;53.252;5.788;2024-01-11T02:27:22;41.97;;;23.75;;
54123;SDS011;55741;53.252;5.788;2024-01-11T02:30:08;36.10;;;21.27;;
54123;SDS011;55741;53.252;5.788;2024-01-11T02:32:35;39.88;;;22.60;;
54123;SDS011;55741;53.252;5.788;2024-01-11T02:35:00;38.45;;;21.52;;
54123;SDS011;55741;53.252;5.788;2024-01-11T02:37:27;38.08;;;20.88;;
54123;SDS011;55741;53.252;5.788;2024-01-11T02:39:53;42.60;;;22.38;;
54123;SDS011;55741;53.252;5.788;2024-01-11T02:42:19;38.05;;;21.92;;
54123;SDS011;55741;53.252;5.788;2024-01-11T02:44:45;38.65;;;22.25;;
54123;SDS011;55741;53.252;5.788;2024-01-11T02:47:10;36.78;;;21.35;;
54123;SDS011;55741;53.252;5.788;2024-01-11T02:49:36;42.05;;;22.58;;
54123;SDS011;55741;53.252;5.788;2024-01-11T02:52:04;36.63;;;21.67;;
54123;SDS011;55741;53.252;5.788;2024-01-11T02:54:30;39.35;;;21.58;;
54123;SDS011;55741;53.252;5.788;2024-01-11T02:56:56;36.72;;;21.65;;
54123;SDS011;55741;53.252;5.788;2024-01-11T02:59:22;40.92;;;23.38;;
54123;SDS011;55741;53.252;5.788;2024-01-11T03:01:49;36.20;;;21.00;;
54123;SDS011;55741;53.252;5.788;2024-01-11T03:04:15;40.03;;;24.52;;
54123;SDS011;55741;53.252;5.788;2024-01-11T03:06:42;40.17;;;24.50;;
54123;SDS011;55741;53.252;5.788;2024-01-11T03:09:27;36.85;;;21.02;;
54123;SDS011;55741;53.252;5.788;2024-01-11T03:11:53;40.17;;;22.33;;
54123;SDS011;55741;53.252;5.788;2024-01-11T03:14:19;39.53;;;22.33;;
54123;SDS011;55741;53.252;5.788;2024-01-11T03:16:45;39.67;;;23.30;;
54123;SDS011;55741;53.252;5.788;2024-01-11T03:19:11;42.70;;;23.63;;
54123;SDS011;55741;53.252;5.788;2024-01-11T03:21:40;43.58;;;23.70;;
54123;SDS011;55741;53.252;5.788;2024-01-11T03:24:09;43.85;;;24.08;;
54123;SDS011;55741;53.252;5.788;2024-01-11T03:26:35;43.60;;;24.23;;
54123;SDS011;55741;53.252;5.788;2024-01-11T03:29:01;43.88;;;23.52;;
54123;SDS011;55741;53.252;5.788;2024-01-11T03:31:27;43.92;;;24.58;;
54123;SDS011;55741;53.252;5.788;2024-01-11T03:33:52;39.70;;;23.95;;
54123;SDS011;55741;53.252;5.788;2024-01-11T03:36:22;40.78;;;22.08;;
54123;SDS011;55741;53.252;5.788;2024-01-11T03:38:50;44.70;;;24.05;;
54123;SDS011;55741;53.252;5.788;2024-01-11T03:41:16;46.20;;;24.25;;
54123;SDS011;55741;53.252;5.788;2024-01-11T03:43:42;42.30;;;24.15;;
54123;SDS011;55741;53.252;5.788;2024-01-11T03:46:07;43.33;;;23.23;;
54123;SDS011;55741;53.252;5.788;2024-01-11T03:48:33;41.20;;;23.98;;
54123;SDS011;55741;53.252;5.788;2024-01-11T03:51:01;41.35;;;23.63;;
54123;SDS011;55741;53.252;5.788;2024-01-11T03:53:28;39.55;;;22.08;;
54123;SDS011;55741;53.252;5.788;2024-01-11T03:55:54;40.15;;;23.08;;
54123;SDS011;55741;53.252;5.788;2024-01-11T03:58:40;41.80;;;23.40;;
54123;SDS011;55741;53.252;5.788;2024-01-11T04:01:07;42.15;;;23.17;;
54123;SDS011;55741;53.252;5.788;2024-01-11T04:03:35;46.10;;;24.88;;
54123;SDS011;55741;53.252;5.788;2024-01-11T04:06:01;46.35;;;24.60;;
54123;SDS011;55741;53.252;5.788;2024-01-11T04:08:27;41.25;;;24.23;;
54123;SDS011;55741;53.252;5.788;2024-01-11T04:10:53;42.17;;;24.45;;
54123;SDS011;55741;53.252;5.788;2024-01-11T04:13:18;42.78;;;23.55;;
54123;SDS011;55741;53.252;5.788;2024-01-11T04:16:05;41.97;;;24.27;;
54123;SDS011;55741;53.252;5.788;2024-01-11T04:18:51;44.10;;;24.00;;
54123;SDS011;55741;53.252;5.788;2024-01-11T04:21:21;42.20;;;23.80;;
54123;SDS011;55741;53.252;5.788;2024-01-11T04:23:53;43.80;;;25.67;;
54123;SDS011;55741;53.252;5.788;2024-01-11T04:26:20;40.70;;;23.88;;
54123;SDS011;55741;53.252;5.788;2024-01-11T04:28:46;44.70;;;25.05;;
54123;SDS011;55741;53.252;5.788;2024-01-11T04:31:16;46.65;;;25.30;;
54123;SDS011;55741;53.252;5.788;2024-01-11T04:33:45;45.78;;;24.85;;
54123;SDS011;55741;53.252;5.788;2024-01-11T04:36:11;47.60;;;25.20;;
54123;SDS011;55741;53.252;5.788;2024-01-11T04:38:38;43.10;;;24.40;;
54123;SDS011;55741;53.252;5.788;2024-01-11T04:41:09;44.35;;;26.02;;
54123;SDS011;55741;53.252;5.788;2024-01-11T04:43:40;41.33;;;24.35;;
54123;SDS011;55741;53.252;5.788;2024-01-11T04:46:14;49.22;;;24.65;;
54123;SDS011;55741;53.252;5.788;2024-01-11T04:48:41;42.47;;;25.17;;
54123;SDS011;55741;53.252;5.788;2024-01-11T04:51:06;44.40;;;25.30;;
54123;SDS011;55741;53.252;5.788;2024-01-11T04:53:38;42.53;;;24.58;;
54123;SDS011;55741;53.252;5.788;2024-01-11T04:56:04;45.95;;;26.40;;
54123;SDS011;55741;53.252;5.788;2024-01-11T04:58:35;50.45;;;26.38;;
54123;SDS011;55741;53.252;5.788;2024-01-11T05:01:03;48.10;;;27.33;;
54123;SDS011;55741;53.252;5.788;2024-01-11T05:03:30;46.83;;;27.45;;
54123;SDS011;55741;53.252;5.788;2024-01-11T05:06:17;45.78;;;26.38;;
54123;SDS011;55741;53.252;5.788;2024-01-11T05:08:44;47.83;;;25.73;;
54123;SDS011;55741;53.252;5.788;2024-01-11T05:11:17;47.67;;;26.48;;
54123;SDS011;55741;53.252;5.788;2024-01-11T05:13:44;45.90;;;26.13;;
54123;SDS011;55741;53.252;5.788;2024-01-11T05:16:23;54.92;;;29.00;;
54123;SDS011;55741;53.252;5.788;2024-01-11T05:18:51;44.80;;;26.15;;
54123;SDS011;55741;53.252;5.788;2024-01-11T05:21:18;49.70;;;27.45;;
54123;SDS011;55741;53.252;5.788;2024-01-11T05:23:44;49.05;;;26.77;;
54123;SDS011;55741;53.252;5.788;2024-01-11T05:26:10;51.83;;;27.13;;
54123;SDS011;55741;53.252;5.788;2024-01-11T05:28:38;49.35;;;27.92;;
54123;SDS011;55741;53.252;5.788;2024-01-11T05:31:10;51.63;;;29.35;;
54123;SDS011;55741;53.252;5.788;2024-01-11T05:33:37;50.10;;;27.40;;
54123;SDS011;55741;53.252;5.788;2024-01-11T05:36:03;49.50;;;26.77;;
54123;SDS011;55741;53.252;5.788;2024-01-11T05:38:30;50.55;;;28.73;;
54123;SDS011;55741;53.252;5.788;2024-01-11T05:40:56;48.80;;;27.23;;
54123;SDS011;55741;53.252;5.788;2024-01-11T05:43:22;48.88;;;28.63;;
54123;SDS011;55741;53.252;5.788;2024-01-11T05:46:08;50.05;;;27.48;;
54123;SDS011;55741;53.252;5.788;2024-01-11T05:48:34;48.80;;;28.42;;
54123;SDS011;55741;53.252;5.788;2024-01-11T05:51:00;51.85;;;29.30;;
54123;SDS011;55741;53.252;5.788;2024-01-11T05:53:26;52.00;;;28.80;;
54123;SDS011;55741;53.252;5.788;2024-01-11T05:55:54;52.47;;;29.05;;
54123;SDS011;55741;53.252;5.788;2024-01-11T05:58:20;50.10;;;27.75;;
54123;SDS011;55741;53.252;5.788;2024-01-11T06:00:46;48.97;;;28.25;;
54123;SDS011;55741;53.252;5.788;2024-01-11T06:03:12;48.65;;;27.83;;
54123;SDS011;55741;53.252;5.788;2024-01-11T06:05:38;52.13;;;28.83;;
54123;SDS011;55741;53.252;5.788;2024-01-11T06:08:04;47.70;;;29.25;;
54123;SDS011;55741;53.252;5.788;2024-01-11T06:10:30;52.40;;;29.13;;
54123;SDS011;55741;53.252;5.788;2024-01-11T06:12:56;51.95;;;28.90;;
54123;SDS011;55741;53.252;5.788;2024-01-11T06:15:42;52.28;;;28.30;;
54123;SDS011;55741;53.252;5.788;2024-01-11T06:18:08;56.05;;;32.00;;
54123;SDS011;55741;53.252;5.788;2024-01-11T06:20:34;50.45;;;29.45;;
54123;SDS011;55741;53.252;5.788;2024-01-11T06:23:00;50.95;;;29.33;;
54123;SDS011;55741;53.252;5.788;2024-01-11T06:25:26;47.85;;;28.63;;
54123;SDS011;55741;53.252;5.788;2024-01-11T06:27:51;47.58;;;27.88;;
54123;SDS011;55741;53.252;5.788;2024-01-11T06:30:17;49.58;;;28.00;;
54123;SDS011;55741;53.252;5.788;2024-01-11T06:32:43;46.38;;;28.40;;
54123;SDS011;55741;53.252;5.788;2024-01-11T06:35:09;51.55;;;30.00;;
54123;SDS011;55741;53.252;5.788;2024-01-11T06:37:35;52.75;;;29.55;;
54123;SDS011;55741;53.252;5.788;2024-01-11T06:40:01;53.13;;;29.20;;
54123;SDS011;55741;53.252;5.788;2024-01-11T06:42:29;50.10;;;27.75;;
54123;SDS011;55741;53.252;5.788;2024-01-11T06:44:55;49.20;;;26.42;;
54123;SDS011;55741;53.252;5.788;2024-01-11T06:47:21;48.58;;;29.30;;
54123;SDS011;55741;53.252;5.788;2024-01-11T06:49:47;50.97;;;29.13;;
54123;SDS011;55741;53.252;5.788;2024-01-11T06:52:13;51.22;;;30.10;;
54123;SDS011;55741;53.252;5.788;2024-01-11T06:54:39;52.70;;;30.48;;
54123;SDS011;55741;53.252;5.788;2024-01-11T06:57:06;48.95;;;29.52;;
54123;SDS011;55741;53.252;5.788;2024-01-11T06:59:33;51.22;;;29.25;;
54123;SDS011;55741;53.252;5.788;2024-01-11T07:02:19;47.08;;;26.65;;
54123;SDS011;55741;53.252;5.788;2024-01-11T07:04:45;50.10;;;29.52;;
54123;SDS011;55741;53.252;5.788;2024-01-11T07:07:11;48.10;;;28.92;;
54123;SDS011;55741;53.252;5.788;2024-01-11T07:09:37;45.70;;;27.92;;
54123;SDS011;55741;53.252;5.788;2024-01-11T07:12:03;48.45;;;28.52;;
54123;SDS011;55741;53.252;5.788;2024-01-11T07:14:29;48.45;;;28.65;;
54123;SDS011;55741;53.252;5.788;2024-01-11T07:16:55;46.47;;;28.02;;
54123;SDS011;55741;53.252;5.788;2024-01-11T07:19:21;51.38;;;29.75;;
54123;SDS011;55741;53.252;5.788;2024-01-11T07:21:47;51.45;;;29.27;;
54123;SDS011;55741;53.252;5.788;2024-01-11T07:24:13;51.90;;;30.10;;
54123;SDS011;55741;53.252;5.788;2024-01-11T07:26:39;47.53;;;26.92;;
54123;SDS011;55741;53.252;5.788;2024-01-11T07:29:05;47.20;;;27.15;;
54123;SDS011;55741;53.252;5.788;2024-01-11T07:31:51;43.30;;;25.42;;
54123;SDS011;55741;53.252;5.788;2024-01-11T07:34:16;47.83;;;27.77;;
54123;SDS011;55741;53.252;5.788;2024-01-11T07:36:42;45.03;;;27.90;;
54123;SDS011;55741;53.252;5.788;2024-01-11T07:39:08;44.42;;;26.83;;
54123;SDS011;55741;53.252;5.788;2024-01-11T07:41:34;43.30;;;26.75;;
54123;SDS011;55741;53.252;5.788;2024-01-11T07:44:00;46.28;;;27.15;;
54123;SDS011;55741;53.252;5.788;2024-01-11T07:46:26;48.50;;;28.08;;
54123;SDS011;55741;53.252;5.788;2024-01-11T07:48:52;61.65;;;34.72;;
54123;SDS011;55741;53.252;5.788;2024-01-11T07:51:18;44.72;;;26.95;;
54123;SDS011;55741;53.252;5.788;2024-01-11T07:53:45;46.88;;;28.50;;
54123;SDS011;55741;53.252;5.788;2024-01-11T07:56:30;59.03;;;34.00;;
54123;SDS011;55741;53.252;5.788;2024-01-11T07:58:58;61.33;;;33.53;;
54123;SDS011;55741;53.252;5.788;2024-01-11T08:01:24;51.60;;;31.38;;
54123;SDS011;55741;53.252;5.788;2024-01-11T08:03:50;46.38;;;27.52;;
54123;SDS011;55741;53.252;5.788;2024-01-11T08:06:17;46.25;;;27.90;;
54123;SDS011;55741;53.252;5.788;2024-01-11T08:08:43;47.38;;;27.42;;
54123;SDS011;55741;53.252;5.788;2024-01-11T08:11:09;49.83;;;29.10;;
54123;SDS011;55741;53.252;5.788;2024-01-11T08:13:38;43.95;;;26.10;;
54123;SDS011;55741;53.252;5.788;2024-01-11T08:16:04;49.60;;;26.63;;
54123;SDS011;55741;53.252;5.788;2024-01-11T08:18:34;42.95;;;25.00;;
54123;SDS011;55741;53.252;5.788;2024-01-11T08:21:00;42.22;;;25.48;;
54123;SDS011;55741;53.252;5.788;2024-01-11T08:23:26;42.78;;;26.30;;
54123;SDS011;55741;53.252;5.788;2024-01-11T08:25:52;48.22;;;28.13;;
54123;SDS011;55741;53.252;5.788;2024-01-11T08:28:38;39.70;;;24.65;;
54123;SDS011;55741;53.252;5.788;2024-01-11T08:31:04;41.97;;;25.02;;
54123;SDS011;55741;53.252;5.788;2024-01-11T08:33:30;41.72;;;24.60;;
54123;SDS011;55741;53.252;5.788;2024-01-11T08:35:56;40.13;;;24.67;;
54123;SDS011;55741;53.252;5.788;2024-01-11T08:38:42;43.13;;;25.55;;
54123;SDS011;55741;53.252;5.788;2024-01-11T08:41:08;41.22;;;24.88;;
54123;SDS011;55741;53.252;5.788;2024-01-11T08:43:34;41.55;;;25.73;;
54123;SDS011;55741;53.252;5.788;2024-01-11T08:46:00;40.95;;;23.88;;
54123;SDS011;55741;53.252;5.788;2024-01-11T08:48:27;40.22;;;24.75;;
54123;SDS011;55741;53.252;5.788;2024-01-11T08:50:53;39.10;;;23.63;;
54123;SDS011;55741;53.252;5.788;2024-01-11T08:53:19;37.95;;;23.40;;
54123;SDS011;55741;53.252;5.788;2024-01-11T08:55:45;40.70;;;24.20;;
54123;SDS011;55741;53.252;5.788;2024-01-11T08:58:11;36.97;;;23.85;;
54123;SDS011;55741;53.252;5.788;2024-01-11T09:00:39;36.72;;;22.90;;
54123;SDS011;55741;53.252;5.788;2024-01-11T09:03:04;38.30;;;24.27;;
54123;SDS011;55741;53.252;5.788;2024-01-11T09:05:30;38.15;;;23.88;;
54123;SDS011;55741;53.252;5.788;2024-01-11T09:07:57;40.47;;;24.80;;
54123;SDS011;55741;53.252;5.788;2024-01-11T09:10:23;37.25;;;23.38;;
54123;SDS011;55741;53.252;5.788;2024-01-11T09:12:48;44.03;;;24.92;;
54123;SDS011;55741;53.252;5.788;2024-01-11T09:15:14;41.60;;;24.98;;
54123;SDS011;55741;53.252;5.788;2024-01-11T09:17:40;42.50;;;25.05;;
54123;SDS011;55741;53.252;5.788;2024-01-11T09:20:26;41.97;;;24.80;;
54123;SDS011;55741;53.252;5.788;2024-01-11T09:22:52;42.35;;;26.67;;
54123;SDS011;55741;53.252;5.788;2024-01-11T09:25:17;43.28;;;24.85;;
54123;SDS011;55741;53.252;5.788;2024-01-11T09:27:43;37.88;;;24.83;;
54123;SDS011;55741;53.252;5.788;2024-01-11T09:30:09;38.88;;;24.83;;
54123;SDS011;55741;53.252;5.788;2024-01-11T09:32:35;41.85;;;25.90;;
54123;SDS011;55741;53.252;5.788;2024-01-11T09:35:02;37.05;;;23.27;;
54123;SDS011;55741;53.252;5.788;2024-01-11T09:37:30;36.75;;;23.88;;
54123;SDS011;55741;53.252;5.788;2024-01-11T09:39:57;39.90;;;24.55;;
54123;SDS011;55741;53.252;5.788;2024-01-11T09:42:22;35.20;;;23.15;;
54123;SDS011;55741;53.252;5.788;2024-01-11T09:45:15;36.53;;;21.98;;
54123;SDS011;55741;53.252;5.788;2024-01-11T09:47:43;41.55;;;24.23;;
54123;SDS011;55741;53.252;5.788;2024-01-11T09:50:11;41.53;;;25.02;;
54123;SDS011;55741;53.252;5.788;2024-01-11T09:52:46;41.05;;;22.98;;
54123;SDS011;55741;53.252;5.788;2024-01-11T09:55:16;38.60;;;23.80;;
54123;SDS011;55741;53.252;5.788;2024-01-11T09:57:46;40.83;;;23.90;;
54123;SDS011;55741;53.252;5.788;2024-01-11T10:00:13;36.40;;;23.42;;
54123;SDS011;55741;53.252;5.788;2024-01-11T10:02:45;36.88;;;23.10;;
54123;SDS011;55741;53.252;5.788;2024-01-11T10:05:12;37.85;;;23.30;;
54123;SDS011;55741;53.252;5.788;2024-01-11T10:07:39;37.80;;;22.30;;
54123;SDS011;55741;53.252;5.788;2024-01-11T10:10:06;39.45;;;24.38;;
54123;SDS011;55741;53.252;5.788;2024-01-11T10:12:35;46.42;;;28.40;;
54123;SDS011;55741;53.252;5.788;2024-01-11T10:15:05;42.58;;;26.55;;
54123;SDS011;55741;53.252;5.788;2024-01-11T10:17:41;40.42;;;24.50;;
54123;SDS011;55741;53.252;5.788;2024-01-11T10:20:10;40.00;;;23.52;;
54123;SDS011;55741;53.252;5.788;2024-01-11T10:22:39;37.40;;;22.73;;
54123;SDS011;55741;53.252;5.788;2024-01-11T10:25:12;39.17;;;25.23;;
54123;SDS011;55741;53.252;5.788;2024-01-11T10:27:40;36.92;;;23.13;;
54123;SDS011;55741;53.252;5.788;2024-01-11T10:30:08;36.35;;;22.08;;
54123;SDS011;55741;53.252;5.788;2024-01-11T10:32:35;34.65;;;21.50;;
54123;SDS011;55741;53.252;5.788;2024-01-11T10:35:01;35.35;;;22.13;;
54123;SDS011;55741;53.252;5.788;2024-01-11T10:37:50;31.35;;;19.75;;
54123;SDS011;55741;53.252;5.788;2024-01-11T10:40:19;34.28;;;19.88;;
54123;SDS011;55741;53.252;5.788;2024-01-11T10:42:51;31.75;;;20.08;;
54123;SDS011;55741;53.252;5.788;2024-01-11T10:45:37;33.45;;;20.00;;
54123;SDS011;55741;53.252;5.788;2024-01-11T10:48:07;31.60;;;19.00;;
54123;SDS011;55741;53.252;5.788;2024-01-11T10:50:43;31.70;;;19.23;;
54123;SDS011;55741;53.252;5.788;2024-01-11T10:56:02;34.72;;;19.40;;
54123;SDS011;55741;53.252;5.788;2024-01-11T10:58:32;30.05;;;17.92;;
54123;SDS011;55741;53.252;5.788;2024-01-11T11:01:00;29.85;;;18.00;;
54123;SDS011;55741;53.252;5.788;2024-01-11T11:03:51;30.60;;;17.52;;
54123;SDS011;55741;53.252;5.788;2024-01-11T11:06:19;29.42;;;18.77;;
54123;SDS011;55741;53.252;5.788;2024-01-11T11:08:47;31.58;;;19.60;;
54123;SDS011;55741;53.252;5.788;2024-01-11T11:11:15;33.33;;;18.08;;
54123;SDS011;55741;53.252;5.788;2024-01-11T11:13:43;32.88;;;16.27;;
54123;SDS011;55741;53.252;5.788;2024-01-11T11:16:14;31.40;;;16.98;;
54123;SDS011;55741;53.252;5.788;2024-01-11T11:18:41;28.80;;;15.55;;
54123;SDS011;55741;53.252;5.788;2024-01-11T11:21:10;24.85;;;13.98;;
54123;SDS011;55741;53.252;5.788;2024-01-11T11:23:39;25.83;;;13.93;;
54123;SDS011;55741;53.252;5.788;2024-01-11T11:26:05;29.80;;;14.60;;
54123;SDS011;55741;53.252;5.788;2024-01-11T11:28:35;26.90;;;14.60;;
54123;SDS011;55741;53.252;5.788;2024-01-11T11:31:02;26.95;;;14.02;;
54123;SDS011;55741;53.252;5.788;2024-01-11T11:33:28;24.38;;;14.95;;
54123;SDS011;55741;53.252;5.788;2024-01-11T11:35:59;23.42;;;12.65;;
54123;SDS011;55741;53.252;5.788;2024-01-11T11:38:26;19.52;;;12.00;;
54123;SDS011;55741;53.252;5.788;2024-01-11T11:40:56;24.08;;;11.85;;
54123;SDS011;55741;53.252;5.788;2024-01-11T11:43:24;22.58;;;10.43;;
54123;SDS011;55741;53.252;5.788;2024-01-11T11:45:52;16.13;;;8.15;;
54123;SDS011;55741;53.252;5.788;2024-01-11T11:51:07;20.98;;;6.53;;
54123;SDS011;55741;53.252;5.788;2024-01-11T11:53:34;29.00;;;7.38;;
54123;SDS011;55741;53.252;5.788;2024-01-11T11:56:01;25.13;;;5.70;;
54123;SDS011;55741;53.252;5.788;2024-01-11T11:58:28;29.90;;;4.50;;
54123;SDS011;55741;53.252;5.788;2024-01-11T12:00:54;23.23;;;5.05;;
54123;SDS011;55741;53.252;5.788;2024-01-11T12:03:29;20.42;;;5.60;;
54123;SDS011;55741;53.252;5.788;2024-01-11T12:05:59;26.38;;;5.45;;
54123;SDS011;55741;53.252;5.788;2024-01-11T12:08:25;22.02;;;5.45;;
54123;SDS011;55741;53.252;5.788;2024-01-11T12:10:52;27.30;;;5.50;;
54123;SDS011;55741;53.252;5.788;2024-01-11T12:13:18;29.35;;;4.13;;
54123;SDS011;55741;53.252;5.788;2024-01-11T12:15:45;44.47;;;5.38;;
54123;SDS011;55741;53.252;5.788;2024-01-11T12:18:32;29.23;;;4.70;;
54123;SDS011;55741;53.252;5.788;2024-01-11T12:20:58;46.45;;;5.72;;
54123;SDS011;55741;53.252;5.788;2024-01-11T12:23:24;37.25;;;7.18;;
54123;SDS011;55741;53.252;5.788;2024-01-11T12:25:50;35.58;;;5.10;;
54123;SDS011;55741;53.252;5.788;2024-01-11T12:28:16;52.40;;;5.15;;
54123;SDS011;55741;53.252;5.788;2024-01-11T12:30:42;45.35;;;6.15;;
54123;SDS011;55741;53.252;5.788;2024-01-11T12:33:10;31.67;;;4.75;;
54123;SDS011;55741;53.252;5.788;2024-01-11T12:35:36;40.38;;;6.30;;
54123;SDS011;55741;53.252;5.788;2024-01-11T12:38:22;37.67;;;5.15;;
54123;SDS011;55741;53.252;5.788;2024-01-11T12:41:08;48.83;;;5.85;;
54123;SDS011;55741;53.252;5.788;2024-01-11T12:43:35;35.72;;;5.22;;
54123;SDS011;55741;53.252;5.788;2024-01-11T12:46:01;36.28;;;5.18;;
54123;SDS011;55741;53.252;5.788;2024-01-11T12:48:28;42.20;;;7.55;;
54123;SDS011;55741;53.252;5.788;2024-01-11T12:50:54;43.67;;;6.57;;
54123;SDS011;55741;53.252;5.788;2024-01-11T12:53:20;33.13;;;5.78;;
54123;SDS011;55741;53.252;5.788;2024-01-11T12:55:47;42.55;;;6.25;;
54123;SDS011;55741;53.252;5.788;2024-01-11T12:58:33;40.58;;;6.57;;
54123;SDS011;55741;53.252;5.788;2024-01-11T13:00:59;43.72;;;6.18;;
54123;SDS011;55741;53.252;5.788;2024-01-11T13:03:25;39.00;;;5.80;;
54123;SDS011;55741;53.252;5.788;2024-01-11T13:05:54;36.03;;;5.63;;
54123;SDS011;55741;53.252;5.788;2024-01-11T13:08:22;36.08;;;6.30;;
54123;SDS011;55741;53.252;5.788;2024-01-11T13:10:49;48.58;;;6.20;;
54123;SDS011;55741;53.252;5.788;2024-01-11T13:13:15;47.55;;;6.68;;
54123;SDS011;55741;53.252;5.788;2024-01-11T13:15:41;39.47;;;6.60;;
54123;SDS011;55741;53.252;5.788;2024-01-11T13:18:07;41.17;;;5.93;;
54123;SDS011;55741;53.252;5.788;2024-01-11T13:20:33;49.40;;;6.10;;
54123;SDS011;55741;53.252;5.788;2024-01-11T13:23:11;46.70;;;7.15;;
54123;SDS011;55741;53.252;5.788;2024-01-11T13:25:42;42.53;;;6.13;;
54123;SDS011;55741;53.252;5.788;2024-01-11T13:28:08;50.70;;;6.55;;
54123;SDS011;55741;53.252;5.788;2024-01-11T13:30:37;45.30;;;5.65;;
54123;SDS011;55741;53.252;5.788;2024-01-11T13:33:04;39.13;;;6.72;;
54123;SDS011;55741;53.252;5.788;2024-01-11T13:35:30;42.67;;;5.68;;
54123;SDS011;55741;53.252;5.788;2024-01-11T13:37:56;48.58;;;6.97;;
54123;SDS011;55741;53.252;5.788;2024-01-11T13:40:22;49.53;;;7.22;;
54123;SDS011;55741;53.252;5.788;2024-01-11T13:42:48;43.88;;;7.80;;
54123;SDS011;55741;53.252;5.788;2024-01-11T13:45:34;40.08;;;6.97;;
54123;SDS011;55741;53.252;5.788;2024-01-11T13:48:02;54.67;;;7.18;;
54123;SDS011;55741;53.252;5.788;2024-01-11T13:50:31;43.42;;;6.47;;
54123;SDS011;55741;53.252;5.788;2024-01-11T13:52:57;45.60;;;5.80;;
54123;SDS011;55741;53.252;5.788;2024-01-11T13:55:23;47.30;;;7.13;;
54123;SDS011;55741;53.252;5.788;2024-01-11T13:57:50;47.47;;;6.88;;
54123;SDS011;55741;53.252;5.788;2024-01-11T14:00:16;48.35;;;9.07;;
54123;SDS011;55741;53.252;5.788;2024-01-11T14:02:43;32.55;;;6.20;;
54123;SDS011;55741;53.252;5.788;2024-01-11T14:05:10;40.60;;;5.88;;
54123;SDS011;55741;53.252;5.788;2024-01-11T14:07:37;42.53;;;6.88;;
54123;SDS011;55741;53.252;5.788;2024-01-11T14:10:06;46.90;;;6.13;;
54123;SDS011;55741;53.252;5.788;2024-01-11T14:12:34;42.70;;;5.93;;
54123;SDS011;55741;53.252;5.788;2024-01-11T14:15:04;47.83;;;6.57;;
54123;SDS011;55741;53.252;5.788;2024-01-11T14:17:32;45.67;;;6.90;;
54123;SDS011;55741;53.252;5.788;2024-01-11T14:19:59;43.83;;;6.53;;
54123;SDS011;55741;53.252;5.788;2024-01-11T14:22:45;33.95;;;6.28;;
54123;SDS011;55741;53.252;5.788;2024-01-11T14:25:20;35.75;;;5.47;;
54123;SDS011;55741;53.252;5.788;2024-01-11T14:27:47;41.10;;;6.28;;
54123;SDS011;55741;53.252;5.788;2024-01-11T14:30:14;24.55;;;5.78;;
54123;SDS011;55741;53.252;5.788;2024-01-11T14:32:40;26.30;;;4.70;;
54123;SDS011;55741;53.252;5.788;2024-01-11T14:35:09;26.65;;;4.80;;
54123;SDS011;55741;53.252;5.788;2024-01-11T14:37:35;23.70;;;3.78;;